Terminal Aerodrome Forecast
Issued by NWS

Home | Current Version | Previous Version | Text Only | Print | Product List | Glossary On
Versions: 1 2 3 4 5 6 7 8 9 10 11 12 13 14 15 16 17 18 19 20 21 22 23 24 25 26 27 28 29
000
FTUS45 KBOU 231142
TAFAPA
TAF
KAPA 231142Z 2312/2412 19007KT P6SM FEW090 SCT160
     FM231700 VRB05KT P6SM FEW090 SCT160
     FM232100 14006KT P6SM SCT090 BKN140
     FM240000 32007KT P6SM BKN080 BKN120
     FM240400 36014G22KT P6SM SCT025 OVC050
     FM240600 03014G22KT 5SM -SHSNRA BR BKN015 OVC025
      TEMPO 2409/2412 2SM -SHSN BR BKN006=

USA.gov is the U.S. government's official web portal to all federal, state and local government web resources and services.